Time;durP1;ratioP1;P1;durP2;ratioP2;P2;SDS_P1;SDS_P2;PMS_P1;PMS_P2;Temp;Humidity;BMP_temperature;BMP_pressure;BME280_temperature;BME280_humidity;BME280_pressure;Samples;Min_cycle;Max_cycle;Signal;HPM_P1;HPM_P2
2023/08/12 00:00:11;;;;;;;4.03;3.43;;;;;;;;;;4903396;29;21385;-92
2023/08/12 00:02:38;;;;;;;;;;;;;;;;;;4907133;29;20070;-91
2023/08/12 00:05:10;;;;;;;4.68;3.85;;;;;;;;;;4899154;29;19923;-92
2023/08/12 00:07:38;;;;;;;4.47;3.85;;;;;;;;;;4925880;29;20500;-92
2023/08/12 00:10:12;;;;;;;8.27;4.95;;;;;;;;;;4902235;29;20048;-91
2023/08/12 00:12:42;;;;;;;6.20;4.13;;;;;;;;;;4910880;29;20067;-92
2023/08/12 00:15:12;;;;;;;6.07;4.97;;;;;;;;;;4909605;29;20062;-92
2023/08/12 00:17:41;;;;;;;6.00;4.18;;;;;;;;;;4931743;29;20048;-90
2023/08/12 00:20:12;;;;;;;7.45;4.50;;;;;;;;;;4914384;29;20898;-90
2023/08/12 00:22:40;;;;;;;4.28;3.55;;;;;;;;;;4914386;29;20051;-92
2023/08/12 00:25:08;;;;;;;4.10;3.60;;;;;;;;;;4919275;29;20056;-91
2023/08/12 00:27:40;;;;;;;4.27;3.87;;;;;;;;;;4920845;29;20055;-90
2023/08/12 00:30:08;;;;;;;4.93;3.83;;;;;;;;;;4916824;29;20058;-91
2023/08/12 00:32:36;;;;;;;5.65;3.63;;;;;;;;;;4911900;29;20048;-91
2023/08/12 00:35:04;;;;;;;12.45;4.40;;;;;;;;;;4917249;29;20052;-91
2023/08/12 00:37:33;;;;;;;6.78;4.85;;;;;;;;;;4900833;29;20059;-91
2023/08/12 00:40:04;;;;;;;12.60;4.43;;;;;;;;;;4916005;29;20056;-92
2023/08/12 00:42:32;;;;;;;5.53;3.58;;;;;;;;;;4917548;29;20586;-91
2023/08/12 00:45:03;;;;;;;4.82;3.85;;;;;;;;;;4912555;29;20052;-89
2023/08/12 00:47:32;;;;;;;5.15;4.07;;;;;;;;;;4904589;29;20092;-91
2023/08/12 00:49:59;;;;;;;10.38;4.75;;;;;;;;;;4902268;29;20550;-91
2023/08/12 00:52:27;;;;;;;5.13;4.07;;;;;;;;;;4930757;29;20055;-91
2023/08/12 00:54:56;;;;;;;9.27;5.10;;;;;;;;;;4913330;29;20052;-91
2023/08/12 00:57:26;;;;;;;5.85;4.60;;;;;;;;;;4913714;29;20047;-91
2023/08/12 00:59:54;;;;;;;13.13;4.43;;;;;;;;;;4907689;29;20062;-91
2023/08/12 01:02:24;;;;;;;3.88;3.58;;;;;;;;;;4915960;29;20054;-91
2023/08/12 01:04:54;;;;;;;10.63;5.22;;;;;;;;;;4900703;29;20055;-91
2023/08/12 01:07:24;;;;;;;6.82;4.47;;;;;;;;;;4896094;29;20055;-91
2023/08/12 01:09:52;;;;;;;4.38;3.97;;;;;;;;;;4915422;29;20590;-91
2023/08/12 01:12:30;;;;;;;6.93;3.92;;;;;;;;;;4905145;29;20051;-92
2023/08/12 01:15:00;;;;;;;6.18;4.72;;;;;;;;;;4904115;29;20055;-91
2023/08/12 01:17:29;;;;;;;4.90;4.03;;;;;;;;;;4949960;29;20047;-89
2023/08/12 01:20:00;;;;;;;5.95;3.70;;;;;;;;;;4921432;29;20055;-89
2023/08/12 01:22:28;;;;;;;5.97;5.32;;;;;;;;;;4927093;29;20056;-91
2023/08/12 01:24:59;;;;;;;6.95;4.13;;;;;;;;;;4932656;29;20056;-91
2023/08/12 01:27:26;;;;;;;4.80;3.42;;;;;;;;;;4919944;29;20052;-91
2023/08/12 01:29:54;;;;;;;4.75;4.22;;;;;;;;;;4916678;29;20051;-90
2023/08/12 01:32:27;;;;;;;5.72;4.47;;;;;;;;;;4903711;29;20129;-92
2023/08/12 01:34:59;;;;;;;4.60;4.07;;;;;;;;;;4929030;29;20499;-92
2023/08/12 01:37:29;;;;;;;5.38;4.07;;;;;;;;;;4915189;29;20506;-91
2023/08/12 01:40:04;;;;;;;8.35;4.13;;;;;;;;;;4901780;29;20055;-92
2023/08/12 01:42:33;;;;;;;8.70;3.92;;;;;;;;;;4917998;29;20526;-91
2023/08/12 01:45:05;;;;;;;12.70;4.50;;;;;;;;;;4898940;29;20054;-90
2023/08/12 01:47:36;;;;;;;7.65;4.22;;;;;;;;;;4904206;29;20985;-93
2023/08/12 01:50:03;;;;;;;4.32;3.78;;;;;;;;;;4916061;29;20463;-90
2023/08/12 01:52:33;;;;;;;6.40;4.43;;;;;;;;;;4914164;29;20040;-90
2023/08/12 01:55:05;;;;;;;5.72;4.15;;;;;;;;;;4915524;29;20047;-90
2023/08/12 01:57:35;;;;;;;4.88;3.53;;;;;;;;;;4913402;29;20506;-92
2023/08/12 02:00:11;;;;;;;5.45;3.80;;;;;;;;;;4912402;29;20051;-92
2023/08/12 02:02:46;;;;;;;6.53;4.93;;;;;;;;;;4915089;29;20047;-92
2023/08/12 02:05:14;;;;;;;26.55;4.40;;;;;;;;;;4908973;29;20526;-91
2023/08/12 02:07:41;;;;;;;4.57;4.10;;;;;;;;;;4934249;29;20064;-93
2023/08/12 02:10:14;;;;;;;4.22;3.83;;;;;;;;;;4929916;29;20043;-92
2023/08/12 02:12:41;;;;;;;6.43;3.83;;;;;;;;;;4926235;29;20043;-92
2023/08/12 02:15:09;;;;;;;4.13;3.72;;;;;;;;;;4917086;29;20058;-92
2023/08/12 02:17:40;;;;;;;8.48;4.25;;;;;;;;;;4916225;29;20059;-92
2023/08/12 02:20:09;;;;;;;8.52;3.95;;;;;;;;;;4926225;29;20051;-90
2023/08/12 02:22:36;;;;;;;4.88;3.33;;;;;;;;;;4915296;29;20051;-91
2023/08/12 02:25:06;;;;;;;12.35;4.65;;;;;;;;;;4919009;29;20058;-91
2023/08/12 02:27:37;;;;;;;5.63;3.85;;;;;;;;;;4898314;29;20044;-92
2023/08/12 02:30:08;;;;;;;5.35;3.50;;;;;;;;;;4897731;29;20055;-92
2023/08/12 02:32:36;;;;;;;5.82;4.32;;;;;;;;;;4900486;29;20058;-92
2023/08/12 02:35:05;;;;;;;5.32;4.75;;;;;;;;;;4911053;29;20047;-92
2023/08/12 02:37:33;;;;;;;5.90;3.47;;;;;;;;;;4912342;29;20533;-92
2023/08/12 02:40:00;;;;;;;6.30;4.20;;;;;;;;;;4927518;29;20538;-91
2023/08/12 02:42:30;;;;;;;4.93;3.95;;;;;;;;;;4911128;29;20047;-91
2023/08/12 02:44:59;;;;;;;3.75;3.35;;;;;;;;;;4930546;29;20048;-92
2023/08/12 02:47:29;;;;;;;7.55;3.72;;;;;;;;;;4903384;29;20078;-92
2023/08/12 02:49:57;;;;;;;4.47;4.07;;;;;;;;;;4921444;29;20056;-92
2023/08/12 02:52:24;;;;;;;10.38;3.83;;;;;;;;;;4916532;29;20638;-92
2023/08/12 02:54:52;;;;;;;5.53;4.18;;;;;;;;;;4915959;29;20066;-92
2023/08/12 02:57:22;;;;;;;7.35;3.65;;;;;;;;;;4920240;29;20055;-90
2023/08/12 02:59:52;;;;;;;5.70;4.30;;;;;;;;;;4914167;29;20059;-91
2023/08/12 03:02:20;;;;;;;13.77;5.15;;;;;;;;;;4912669;29;20671;-92
2023/08/12 03:04:51;;;;;;;4.35;3.90;;;;;;;;;;4915331;29;20048;-91
2023/08/12 03:07:18;;;;;;;5.22;3.65;;;;;;;;;;4900450;29;20561;-91
2023/08/12 03:09:49;;;;;;;4.50;3.78;;;;;;;;;;4911413;29;20078;-90
2023/08/12 03:12:16;;;;;;;9.35;4.63;;;;;;;;;;4897231;29;20052;-91
2023/08/12 03:14:44;;;;;;;5.28;3.95;;;;;;;;;;4900176;29;20059;-91
2023/08/12 03:17:11;;;;;;;4.65;4.25;;;;;;;;;;4914606;29;20052;-91
2023/08/12 03:19:42;;;;;;;4.10;3.25;;;;;;;;;;4909503;29;20052;-92
2023/08/12 03:22:10;;;;;;;5.03;4.00;;;;;;;;;;4929086;29;20745;-92
2023/08/12 03:24:40;;;;;;;5.45;3.63;;;;;;;;;;4908235;29;20052;-91
2023/08/12 03:27:09;;;;;;;7.45;4.28;;;;;;;;;;4910530;29;20412;-92
2023/08/12 03:29:37;;;;;;;5.05;3.80;;;;;;;;;;4904167;29;20062;-91
2023/08/12 03:32:05;;;;;;;7.20;4.20;;;;;;;;;;4915917;29;20050;-91
2023/08/12 03:34:33;;;;;;;3.97;3.63;;;;;;;;;;4916760;29;20063;-92
2023/08/12 03:37:02;;;;;;;5.75;4.22;;;;;;;;;;4899242;29;20055;-92
2023/08/12 03:39:31;;;;;;;9.68;4.57;;;;;;;;;;4895285;29;20039;-91
2023/08/12 03:42:00;;;;;;;6.78;3.67;;;;;;;;;;4902764;29;20426;-91
2023/08/12 03:44:29;;;;;;;6.25;4.25;;;;;;;;;;4905693;29;20063;-92
2023/08/12 03:46:57;;;;;;;5.88;4.63;;;;;;;;;;4915022;29;20052;-92
2023/08/12 03:49:24;;;;;;;9.35;3.67;;;;;;;;;;4910750;29;20059;-91
2023/08/12 03:51:52;;;;;;;8.38;4.22;;;;;;;;;;4919569;29;20051;-91
2023/08/12 03:54:21;;;;;;;7.05;3.85;;;;;;;;;;4898131;29;20503;-92
2023/08/12 03:56:48;;;;;;;6.03;3.85;;;;;;;;;;4913343;29;20052;-91
2023/08/12 03:59:15;;;;;;;5.75;3.60;;;;;;;;;;4924943;29;20083;-92
2023/08/12 04:01:43;;;;;;;4.50;3.83;;;;;;;;;;4905010;29;20055;-91
2023/08/12 04:04:12;;;;;;;3.97;3.63;;;;;;;;;;4907733;29;21232;-92
2023/08/12 04:06:42;;;;;;;6.00;4.70;;;;;;;;;;4904725;29;20063;-92
2023/08/12 04:09:09;;;;;;;5.43;3.67;;;;;;;;;;4899876;29;20055;-92
2023/08/12 04:11:38;;;;;;;6.32;3.35;;;;;;;;;;4904000;29;20427;-92
2023/08/12 04:14:08;;;;;;;5.15;4.40;;;;;;;;;;4918072;29;20598;-91
2023/08/12 04:16:36;;;;;;;9.13;3.90;;;;;;;;;;4920078;29;20697;-91
2023/08/12 04:19:03;;;;;;;4.35;3.95;;;;;;;;;;4919079;29;20051;-91
2023/08/12 04:21:31;;;;;;;7.53;4.07;;;;;;;;;;4917055;29;20043;-92
2023/08/12 04:24:02;;;;;;;8.40;4.28;;;;;;;;;;4917896;29;20052;-92
2023/08/12 04:26:30;;;;;;;5.18;4.05;;;;;;;;;;4899882;29;20063;-91
2023/08/12 04:28:59;;;;;;;6.35;4.38;;;;;;;;;;4932806;29;20055;-92
2023/08/12 04:31:28;;;;;;;4.40;4.00;;;;;;;;;;4902996;29;20055;-91
2023/08/12 04:33:55;;;;;;;5.00;3.95;;;;;;;;;;4916047;29;20047;-92
2023/08/12 04:36:25;;;;;;;8.02;4.55;;;;;;;;;;4903416;29;20055;-92
2023/08/12 04:38:53;;;;;;;7.25;4.30;;;;;;;;;;4904939;29;20063;-91
2023/08/12 04:41:23;;;;;;;7.95;3.97;;;;;;;;;;4908115;29;20059;-91
2023/08/12 04:43:54;;;;;;;7.07;4.30;;;;;;;;;;4907726;29;20047;-91
2023/08/12 04:46:25;;;;;;;5.35;4.38;;;;;;;;;;4929599;29;20055;-91
2023/08/12 04:48:53;;;;;;;5.13;4.57;;;;;;;;;;4915917;29;20051;-92
2023/08/12 04:51:20;;;;;;;8.27;4.28;;;;;;;;;;4912631;29;20432;-91
2023/08/12 04:53:48;;;;;;;7.80;3.97;;;;;;;;;;4911092;29;20048;-91
2023/08/12 04:56:15;;;;;;;5.10;4.55;;;;;;;;;;4918082;29;20052;-92
2023/08/12 04:58:50;;;;;;;5.05;4.30;;;;;;;;;;4912599;29;20055;-92
2023/08/12 05:01:21;;;;;;;6.32;4.75;;;;;;;;;;4903821;29;20055;-91
2023/08/12 05:03:50;;;;;;;6.72;4.65;;;;;;;;;;4922090;29;20043;-91
2023/08/12 05:06:17;;;;;;;5.97;4.35;;;;;;;;;;4902321;29;20059;-91
2023/08/12 05:08:46;;;;;;;4.63;3.72;;;;;;;;;;4903948;29;20043;-92
2023/08/12 05:11:14;;;;;;;8.65;4.65;;;;;;;;;;4915671;29;20054;-92
2023/08/12 05:13:42;;;;;;;6.38;4.43;;;;;;;;;;4904755;29;20059;-92
2023/08/12 05:16:16;;;;;;;4.82;3.95;;;;;;;;;;4899602;29;20066;-91
2023/08/12 05:18:44;;;;;;;5.30;4.20;;;;;;;;;;4918951;29;20051;-92
2023/08/12 05:21:14;;;;;;;7.57;4.65;;;;;;;;;;4954640;28;20034;-92
2023/08/12 05:23:42;;;;;;;6.97;3.95;;;;;;;;;;4930981;29;20052;-93
2023/08/12 05:26:12;;;;;;;6.65;4.22;;;;;;;;;;4912809;29;20047;-92
2023/08/12 05:28:42;;;;;;;4.80;4.18;;;;;;;;;;4940088;29;20039;-93
2023/08/12 05:31:09;;;;;;;12.63;5.55;;;;;;;;;;4917552;29;20056;-93
2023/08/12 05:33:37;;;;;;;4.30;3.83;;;;;;;;;;4935654;29;20048;-92
2023/08/12 05:36:05;;;;;;;5.93;4.25;;;;;;;;;;4918615;29;20051;-92
2023/08/12 05:38:34;;;;;;;4.35;3.95;;;;;;;;;;4931528;29;20047;-91
2023/08/12 05:41:03;;;;;;;5.13;4.63;;;;;;;;;;4922655;29;20051;-91
2023/08/12 05:43:31;;;;;;;5.93;4.40;;;;;;;;;;4914594;29;20423;-91
2023/08/12 05:45:58;;;;;;;4.68;4.18;;;;;;;;;;4931331;29;20048;-92
2023/08/12 05:48:26;;;;;;;4.68;4.03;;;;;;;;;;4918569;29;20408;-91
2023/08/12 05:50:55;;;;;;;5.65;4.38;;;;;;;;;;4927689;29;20078;-90
2023/08/12 05:53:23;;;;;;;4.25;3.85;;;;;;;;;;4916075;29;20059;-91
2023/08/12 05:55:52;;;;;;;5.07;4.00;;;;;;;;;;4916095;29;20055;-92
2023/08/12 05:58:20;;;;;;;4.53;3.75;;;;;;;;;;4922363;29;20395;-92
2023/08/12 06:00:47;;;;;;;6.07;4.50;;;;;;;;;;4900038;29;20054;-91
2023/08/12 06:03:15;;;;;;;6.22;4.65;;;;;;;;;;4907197;29;20044;-91
2023/08/12 06:05:46;;;;;;;4.95;4.45;;;;;;;;;;4917156;29;20533;-91
2023/08/12 06:08:14;;;;;;;4.88;4.10;;;;;;;;;;4914241;29;20059;-91
2023/08/12 06:10:43;;;;;;;5.15;4.65;;;;;;;;;;4932594;29;20051;-91
2023/08/12 06:13:12;;;;;;;5.47;4.38;;;;;;;;;;4924174;29;20047;-92
2023/08/12 06:15:40;;;;;;;3.40;3.03;;;;;;;;;;4914851;29;20052;-92
2023/08/12 06:18:10;;;;;;;4.68;4.10;;;;;;;;;;4911505;29;20626;-93
2023/08/12 06:20:37;;;;;;;7.57;4.10;;;;;;;;;;4914230;29;20059;-91
2023/08/12 06:23:06;;;;;;;4.70;3.80;;;;;;;;;;4930921;29;20063;-93
2023/08/12 06:25:35;;;;;;;4.43;3.45;;;;;;;;;;4918140;29;20144;-92
2023/08/12 06:28:05;;;;;;;3.55;3.08;;;;;;;;;;5059173;23;20055;-92
2023/08/12 06:30:34;;;;;;;7.85;3.78;;;;;;;;;;4925488;29;20051;-92
2023/08/12 06:33:01;;;;;;;4.03;3.63;;;;;;;;;;4946873;28;20510;-92
2023/08/12 06:35:29;;;;;;;4.55;3.33;;;;;;;;;;4915229;29;20051;-91
2023/08/12 06:37:59;;;;;;;4.88;4.43;;;;;;;;;;4929117;29;20059;-91
2023/08/12 06:40:27;;;;;;;11.15;3.47;;;;;;;;;;4925982;29;20039;-93
2023/08/12 06:42:57;;;;;;;4.78;4.28;;;;;;;;;;4921513;29;20070;-91
2023/08/12 06:45:25;;;;;;;4.35;3.95;;;;;;;;;;4911877;29;20055;-92
2023/08/12 06:47:53;;;;;;;4.65;3.50;;;;;;;;;;4916085;29;20519;-93
2023/08/12 06:50:21;;;;;;;7.25;3.22;;;;;;;;;;4947139;28;20062;-92
2023/08/12 06:52:50;;;;;;;5.63;4.47;;;;;;;;;;4951270;29;20136;-92
2023/08/12 06:55:18;;;;;;;4.63;3.72;;;;;;;;;;4912409;29;20050;-92
2023/08/12 06:57:46;;;;;;;4.03;3.58;;;;;;;;;;4951030;28;20055;-92
2023/08/12 07:00:13;;;;;;;4.88;3.95;;;;;;;;;;4935813;29;20062;-92
2023/08/12 07:02:45;;;;;;;3.65;3.30;;;;;;;;;;4926268;29;20051;-92
2023/08/12 07:05:15;;;;;;;3.85;3.30;;;;;;;;;;4916578;29;20426;-92
2023/08/12 07:07:47;;;;;;;5.65;4.03;;;;;;;;;;4929398;29;20054;-92
2023/08/12 07:10:17;;;;;;;5.57;4.03;;;;;;;;;;4947173;28;20060;-92
2023/08/12 07:12:47;;;;;;;4.28;3.50;;;;;;;;;;4916516;29;20059;-91
2023/08/12 07:15:14;;;;;;;3.58;3.28;;;;;;;;;;4953569;28;20059;-92
2023/08/12 07:17:42;;;;;;;4.60;4.05;;;;;;;;;;4927404;28;20051;-92
2023/08/12 07:20:09;;;;;;;5.35;3.50;;;;;;;;;;4916661;29;20063;-92
2023/08/12 07:22:38;;;;;;;4.80;4.15;;;;;;;;;;4935837;29;20048;-93
2023/08/12 07:25:09;;;;;;;6.57;4.80;;;;;;;;;;4967250;28;20050;-90
2023/08/12 07:27:36;;;;;;;4.72;3.75;;;;;;;;;;4965359;28;20050;-91
2023/08/12 07:30:06;;;;;;;4.00;3.63;;;;;;;;;;4933366;29;20052;-92
2023/08/12 07:32:34;;;;;;;5.03;3.85;;;;;;;;;;4936368;29;20062;-92
2023/08/12 07:35:01;;;;;;;4.40;3.85;;;;;;;;;;4937857;28;20051;-91
2023/08/12 07:37:33;;;;;;;5.88;4.15;;;;;;;;;;4932635;29;20055;-92
2023/08/12 07:40:03;;;;;;;4.93;4.40;;;;;;;;;;4925402;29;20066;-93
2023/08/12 07:42:30;;;;;;;4.47;4.05;;;;;;;;;;4935153;29;20046;-92
2023/08/12 07:44:58;;;;;;;4.68;3.85;;;;;;;;;;4930967;29;20055;-92
2023/08/12 07:47:25;;;;;;;7.70;4.63;;;;;;;;;;4934630;29;20055;-91
2023/08/12 07:49:52;;;;;;;5.40;4.55;;;;;;;;;;4935980;29;20050;-91
2023/08/12 07:52:20;;;;;;;6.68;4.07;;;;;;;;;;4929476;29;20052;-92
2023/08/12 07:54:49;;;;;;;4.07;3.70;;;;;;;;;;4914743;28;20077;-91
2023/08/12 07:57:23;;;;;;;6.22;4.13;;;;;;;;;;4902319;29;20534;-92
2023/08/12 07:59:51;;;;;;;5.53;3.80;;;;;;;;;;4940957;29;20055;-92
2023/08/12 08:02:18;;;;;;;8.93;4.22;;;;;;;;;;4939723;29;20055;-91
2023/08/12 08:04:48;;;;;;;8.80;3.80;;;;;;;;;;4936917;29;20043;-91
2023/08/12 08:07:18;;;;;;;8.63;4.80;;;;;;;;;;4923268;29;20055;-92
2023/08/12 08:09:48;;;;;;;5.63;4.03;;;;;;;;;;4943779;28;20055;-92
2023/08/12 08:12:18;;;;;;;5.03;4.10;;;;;;;;;;4958332;28;20051;-92
2023/08/12 08:14:47;;;;;;;7.05;4.57;;;;;;;;;;4966604;28;20051;-93
2023/08/12 08:17:14;;;;;;;4.60;4.20;;;;;;;;;;4949389;29;20047;-91
2023/08/12 08:19:44;;;;;;;5.68;4.97;;;;;;;;;;4966330;28;20058;-90
2023/08/12 08:22:11;;;;;;;9.68;4.57;;;;;;;;;;4947593;29;20074;-91
2023/08/12 08:24:42;;;;;;;5.35;4.68;;;;;;;;;;4926113;29;20062;-93
2023/08/12 08:27:09;;;;;;;4.57;4.18;;;;;;;;;;4940652;28;20047;-90
2023/08/12 08:29:41;;;;;;;5.18;4.45;;;;;;;;;;4939675;28;20066;-91
2023/08/12 08:32:10;;;;;;;5.35;4.47;;;;;;;;;;4949578;29;20070;-91
2023/08/12 08:34:42;;;;;;;11.25;4.35;;;;;;;;;;4925156;28;20055;-92
2023/08/12 08:37:10;;;;;;;6.53;4.80;;;;;;;;;;4920388;28;20486;-93
2023/08/12 08:39:37;;;;;;;4.15;3.85;;;;;;;;;;4934396;28;20052;-92
2023/08/12 08:42:06;;;;;;;5.97;3.78;;;;;;;;;;4934468;28;20054;-92
2023/08/12 08:44:38;;;;;;;4.73;4.23;;;;;;;;;;4922789;29;20063;-90
2023/08/12 08:47:10;;;;;;;6.78;4.95;;;;;;;;;;4931495;28;20054;-91
2023/08/12 08:49:41;;;;;;;3.95;3.55;;;;;;;;;;4933294;29;20072;-92
2023/08/12 08:52:08;;;;;;;4.18;3.78;;;;;;;;;;4919729;29;20051;-91
2023/08/12 08:54:36;;;;;;;9.05;4.50;;;;;;;;;;4921588;29;20051;-92
2023/08/12 08:57:12;;;;;;;6.15;4.32;;;;;;;;;;4937755;29;20051;-92
2023/08/12 08:59:40;;;;;;;4.90;3.97;;;;;;;;;;4930912;28;20055;-93
2023/08/12 09:02:13;;;;;;;7.82;4.32;;;;;;;;;;4934064;29;20621;-92
2023/08/12 09:04:41;;;;;;;5.28;4.57;;;;;;;;;;4914083;28;20426;-92
2023/08/12 09:07:12;;;;;;;5.35;4.85;;;;;;;;;;4944384;28;20059;-91
2023/08/12 09:09:46;;;;;;;5.35;4.95;;;;;;;;;;4946363;28;20058;-91
2023/08/12 09:12:24;;;;;;;7.60;5.27;;;;;;;;;;4915228;29;20063;-92
2023/08/12 09:14:51;;;;;;;4.25;3.92;;;;;;;;;;4930295;28;20303;-93
2023/08/12 09:17:20;;;;;;;5.03;4.53;;;;;;;;;;4937783;28;20038;-92
2023/08/12 09:19:50;;;;;;;5.53;4.45;;;;;;;;;;4928779;28;20051;-91
2023/08/12 09:22:25;;;;;;;5.00;4.38;;;;;;;;;;4947766;28;20054;-91
2023/08/12 09:25:04;;;;;;;4.68;4.22;;;;;;;;;;4930030;28;20055;-91
2023/08/12 09:28:13;;;;;;;5.78;4.82;;;;;;;;;;4930279;29;20047;-91
2023/08/12 09:31:05;;;;;;;4.50;4.10;;;;;;;;;;4932795;29;20063;-91
2023/08/12 09:33:40;;;;;;;5.20;4.80;;;;;;;;;;4946511;28;20121;-92
2023/08/12 09:36:16;;;;;;;5.10;4.70;;;;;;;;;;4915717;29;20705;-92
2023/08/12 09:39:01;;;;;;;5.68;5.10;;;;;;;;;;4931113;29;20050;-92
2023/08/12 09:41:40;;;;;;;5.82;4.60;;;;;;;;;;4948251;28;20058;-93
2023/08/12 09:44:15;;;;;;;6.68;4.60;;;;;;;;;;4937851;29;20051;-93
2023/08/12 09:46:49;;;;;;;4.18;3.85;;;;;;;;;;4925350;29;20056;-93
2023/08/12 09:49:20;;;;;;;6.97;5.53;;;;;;;;;;4941981;28;20052;-91
2023/08/12 09:51:54;;;;;;;8.68;5.05;;;;;;;;;;4928678;29;20051;-91
2023/08/12 09:54:24;;;;;;;5.05;4.05;;;;;;;;;;4919599;28;20058;-92
2023/08/12 09:57:02;;;;;;;5.50;5.00;;;;;;;;;;4954920;28;20051;-91
2023/08/12 09:59:46;;;;;;;4.70;4.30;;;;;;;;;;4923269;29;20052;-92
2023/08/12 10:03:00;;;;;;;5.18;4.65;;;;;;;;;;4936899;29;20066;-92
2023/08/12 10:05:55;;;;;;;7.03;4.82;;;;;;;;;;4948084;28;20053;-93
2023/08/12 10:08:23;;;;;;;6.05;4.85;;;;;;;;;;4960503;28;20054;-93
2023/08/12 10:11:10;;;;;;;5.78;5.03;;;;;;;;;;4944360;29;20039;-92
2023/08/12 10:14:14;;;;;;;5.35;4.18;;;;;;;;;;4931964;29;20051;-91
2023/08/12 10:17:01;;;;;;;5.03;3.95;;;;;;;;;;4931525;28;20316;-91
2023/08/12 10:20:00;;;;;;;5.22;4.72;;;;;;;;;;4927867;29;20066;-92
2023/08/12 10:22:54;;;;;;;4.95;4.55;;;;;;;;;;4951991;28;20047;-93
2023/08/12 10:25:26;;;;;;;4.90;4.43;;;;;;;;;;4950807;28;20051;-92
2023/08/12 10:28:03;;;;;;;4.43;4.03;;;;;;;;;;4937018;29;20054;-91
2023/08/12 10:31:14;;;;;;;6.20;4.88;;;;;;;;;;4946370;28;20051;-93
2023/08/12 10:34:08;;;;;;;4.90;4.50;;;;;;;;;;4947458;29;20048;-92
2023/08/12 10:37:06;;;;;;;7.93;4.63;;;;;;;;;;4914061;28;20052;-91
2023/08/12 10:39:41;;;;;;;5.35;4.85;;;;;;;;;;4944486;28;20043;-91
2023/08/12 10:42:12;;;;;;;;;;;;;;;;;;4927263;29;20046;-92
2023/08/12 10:44:51;;;;;;;8.10;4.53;;;;;;;;;;4910105;29;19929;-92
2023/08/12 10:47:21;;;;;;;7.68;4.13;;;;;;;;;;4931901;29;20051;-91
2023/08/12 10:50:02;;;;;;;5.10;4.60;;;;;;;;;;4928122;29;20051;-92
2023/08/12 10:52:33;;;;;;;8.15;4.72;;;;;;;;;;4946544;28;20055;-93
2023/08/12 10:55:26;;;;;;;5.28;4.78;;;;;;;;;;4925980;28;20556;-92
2023/08/12 10:58:06;;;;;;;4.95;4.45;;;;;;;;;;4951928;29;20047;-91
2023/08/12 11:00:34;;;;;;;6.30;5.07;;;;;;;;;;4951129;28;20055;-91
2023/08/12 11:03:06;;;;;;;6.65;4.30;;;;;;;;;;4949582;28;20518;-93
2023/08/12 11:05:39;;;;;;;6.05;5.53;;;;;;;;;;4960812;28;20048;-90
2023/08/12 11:08:07;;;;;;;6.28;4.97;;;;;;;;;;4939043;29;20042;-91
2023/08/12 11:10:36;;;;;;;6.18;4.32;;;;;;;;;;4941103;28;20051;-90
2023/08/12 11:13:04;;;;;;;5.22;4.72;;;;;;;;;;4914134;29;20070;-92
2023/08/12 11:15:38;;;;;;;5.10;4.53;;;;;;;;;;4926778;28;20043;-92
2023/08/12 11:18:06;;;;;;;5.35;4.57;;;;;;;;;;4920562;29;20829;-92
2023/08/12 11:20:35;;;;;;;5.47;4.03;;;;;;;;;;4949031;28;20069;-93
2023/08/12 11:23:06;;;;;;;5.18;4.53;;;;;;;;;;4933238;28;20063;-92
2023/08/12 11:25:38;;;;;;;5.23;4.33;;;;;;;;;;4936714;29;20043;-92
2023/08/12 11:28:08;;;;;;;12.73;5.32;;;;;;;;;;4957472;28;20313;-90
2023/08/12 11:30:41;;;;;;;5.43;4.93;;;;;;;;;;4960909;28;20058;-92
2023/08/12 11:33:08;;;;;;;5.90;4.78;;;;;;;;;;4917011;28;20071;-92
2023/08/12 11:35:38;;;;;;;9.68;4.88;;;;;;;;;;4926165;29;20047;-93
2023/08/12 11:38:07;;;;;;;5.47;4.97;;;;;;;;;;4944017;29;20048;-93
2023/08/12 11:40:36;;;;;;;5.82;5.20;;;;;;;;;;4940921;28;20059;-93
2023/08/12 11:43:07;;;;;;;5.63;5.00;;;;;;;;;;4931649;29;20047;-92
2023/08/12 11:45:42;;;;;;;9.60;6.75;;;;;;;;;;4939313;29;20043;-90
2023/08/12 11:48:12;;;;;;;6.65;5.90;;;;;;;;;;4960134;29;20065;-90
2023/08/12 11:50:40;;;;;;;7.97;6.30;;;;;;;;;;4939076;29;20070;-91
2023/08/12 11:53:09;;;;;;;8.50;6.05;;;;;;;;;;4933241;28;20055;-92
2023/08/12 11:55:39;;;;;;;9.57;7.47;;;;;;;;;;4931556;29;20058;-91
2023/08/12 11:58:07;;;;;;;6.68;5.63;;;;;;;;;;4931989;29;20058;-92
2023/08/12 12:00:36;;;;;;;8.27;6.35;;;;;;;;;;4929760;29;20051;-91
2023/08/12 12:03:06;;;;;;;6.88;5.82;;;;;;;;;;4954747;28;20403;-92
2023/08/12 12:05:34;;;;;;;9.50;6.32;;;;;;;;;;4947166;28;20065;-91
2023/08/12 12:08:02;;;;;;;6.35;5.75;;;;;;;;;;4932916;29;20051;-91
2023/08/12 12:10:31;;;;;;;9.77;5.13;;;;;;;;;;4932536;29;20070;-91
2023/08/12 12:13:01;;;;;;;8.73;6.15;;;;;;;;;;4923191;29;20639;-91
2023/08/12 12:15:28;;;;;;;5.80;5.30;;;;;;;;;;4931865;29;20055;-89
2023/08/12 12:17:59;;;;;;;6.13;5.53;;;;;;;;;;4931157;28;20433;-91
2023/08/12 12:20:29;;;;;;;6.78;6.10;;;;;;;;;;4935657;29;20074;-91
2023/08/12 12:22:56;;;;;;;6.57;5.80;;;;;;;;;;4935501;28;20048;-92
2023/08/12 12:25:24;;;;;;;8.32;7.45;;;;;;;;;;4939259;28;20050;-91
2023/08/12 12:27:51;;;;;;;6.60;6.00;;;;;;;;;;4917813;29;20043;-92
2023/08/12 12:30:23;;;;;;;6.45;5.85;;;;;;;;;;4920152;29;20047;-91
2023/08/12 12:32:52;;;;;;;4.93;4.43;;;;;;;;;;4938060;29;20056;-92
2023/08/12 12:35:23;;;;;;;6.80;5.25;;;;;;;;;;4922377;29;20047;-91
2023/08/12 12:37:56;;;;;;;6.97;5.57;;;;;;;;;;4950980;28;20059;-91
2023/08/12 12:40:24;;;;;;;6.00;5.40;;;;;;;;;;4931913;29;20510;-93
2023/08/12 12:42:51;;;;;;;5.93;5.47;;;;;;;;;;4947853;28;20078;-92
2023/08/12 12:45:32;;;;;;;7.50;5.13;;;;;;;;;;4946556;29;20051;-91
2023/08/12 12:48:00;;;;;;;6.35;5.53;;;;;;;;;;4949425;28;20056;-92
2023/08/12 12:50:33;;;;;;;5.75;5.07;;;;;;;;;;4914752;29;20585;-92
2023/08/12 12:53:01;;;;;;;7.95;5.90;;;;;;;;;;4926341;29;20067;-92
2023/08/12 12:55:31;;;;;;;6.15;4.85;;;;;;;;;;4946903;28;20047;-93
2023/08/12 12:57:59;;;;;;;5.93;5.22;;;;;;;;;;4921883;29;20054;-92
2023/08/12 13:00:28;;;;;;;4.85;4.43;;;;;;;;;;4936078;29;20063;-92
2023/08/12 13:02:58;;;;;;;8.40;5.05;;;;;;;;;;4940424;29;20062;-93
2023/08/12 13:05:26;;;;;;;3.58;3.25;;;;;;;;;;4935828;29;20051;-93
2023/08/12 13:07:53;;;;;;;3.38;3.08;;;;;;;;;;4930055;28;20043;-92
2023/08/12 13:10:25;;;;;;;3.70;2.95;;;;;;;;;;4936025;29;20070;-92
2023/08/12 13:12:56;;;;;;;4.93;2.90;;;;;;;;;;4935551;29;20059;-93
2023/08/12 13:15:28;;;;;;;3.13;2.60;;;;;;;;;;4918498;29;20067;-94
2023/08/12 13:17:56;;;;;;;2.78;2.40;;;;;;;;;;4912967;29;20043;-92
2023/08/12 13:20:27;;;;;;;2.85;2.00;;;;;;;;;;4949440;28;20055;-92
2023/08/12 13:22:57;;;;;;;1.70;1.60;;;;;;;;;;4930785;28;20537;-92
2023/08/12 13:25:24;;;;;;;2.55;2.03;;;;;;;;;;4937557;29;20059;-93
2023/08/12 13:27:52;;;;;;;3.25;2.38;;;;;;;;;;4937018;29;20057;-92
2023/08/12 13:30:24;;;;;;;2.25;1.95;;;;;;;;;;4922720;29;20047;-92
2023/08/12 13:32:56;;;;;;;3.00;2.70;;;;;;;;;;4942790;29;20058;-92
2023/08/12 13:35:29;;;;;;;2.72;2.17;;;;;;;;;;4946319;29;20043;-92
2023/08/12 13:37:57;;;;;;;2.85;2.00;;;;;;;;;;4915046;29;20059;-93
2023/08/12 13:40:27;;;;;;;2.03;1.58;;;;;;;;;;4924577;29;20051;-92
2023/08/12 13:43:00;;;;;;;4.43;2.28;;;;;;;;;;4924136;29;20055;-92
2023/08/12 13:45:28;;;;;;;3.35;2.08;;;;;;;;;;4907989;29;20050;-92
2023/08/12 13:48:02;;;;;;;2.45;1.67;;;;;;;;;;4934107;29;20048;-92
2023/08/12 13:50:32;;;;;;;6.40;2.03;;;;;;;;;;4931702;29;20462;-92
2023/08/12 13:53:02;;;;;;;2.65;1.75;;;;;;;;;;4941116;29;20055;-92
2023/08/12 13:55:30;;;;;;;3.15;2.17;;;;;;;;;;4950049;28;20043;-92
2023/08/12 13:57:57;;;;;;;3.22;2.40;;;;;;;;;;4915361;29;20482;-92
2023/08/12 14:00:25;;;;;;;2.88;2.13;;;;;;;;;;4926356;28;20043;-93
2023/08/12 14:02:53;;;;;;;2.42;2.13;;;;;;;;;;4930541;28;20055;-93
2023/08/12 14:05:21;;;;;;;2.92;2.58;;;;;;;;;;4921735;29;20059;-92
2023/08/12 14:07:52;;;;;;;5.55;2.83;;;;;;;;;;4918778;29;20051;-92
2023/08/12 14:10:19;;;;;;;3.05;2.30;;;;;;;;;;4953616;28;20128;-92
2023/08/12 14:12:56;;;;;;;3.28;2.85;;;;;;;;;;4935308;28;20047;-92
2023/08/12 14:15:24;;;;;;;8.73;2.50;;;;;;;;;;4935100;29;20426;-91
2023/08/12 14:17:56;;;;;;;3.15;2.00;;;;;;;;;;4944296;28;20044;-92
2023/08/12 14:20:35;;;;;;;2.17;1.70;;;;;;;;;;4959713;28;20051;-92
2023/08/12 14:23:03;;;;;;;2.55;1.80;;;;;;;;;;4924648;28;20051;-92
2023/08/12 14:25:36;;;;;;;2.97;2.00;;;;;;;;;;4927775;29;20055;-92
2023/08/12 14:28:05;;;;;;;2.30;1.70;;;;;;;;;;4940431;28;20056;-92
2023/08/12 14:30:34;;;;;;;4.13;2.28;;;;;;;;;;4920756;29;20516;-92
2023/08/12 14:33:02;;;;;;;6.32;3.72;;;;;;;;;;4911672;28;20047;-90
2023/08/12 14:35:37;;;;;;;3.22;2.92;;;;;;;;;;4931194;29;20058;-93
2023/08/12 14:38:06;;;;;;;3.55;2.90;;;;;;;;;;4924767;29;20047;-92
2023/08/12 14:40:38;;;;;;;6.80;3.05;;;;;;;;;;4914815;29;20062;-92
2023/08/12 14:43:06;;;;;;;4.10;3.03;;;;;;;;;;4952750;28;20054;-92
2023/08/12 14:45:33;;;;;;;5.32;3.17;;;;;;;;;;4946456;29;20060;-93
2023/08/12 14:48:00;;;;;;;5.30;4.10;;;;;;;;;;4936549;29;20051;-92
2023/08/12 14:50:32;;;;;;;3.75;3.35;;;;;;;;;;4956082;29;20055;-92
2023/08/12 14:53:00;;;;;;;5.40;3.60;;;;;;;;;;4953886;28;20049;-92
2023/08/12 14:55:27;;;;;;;6.15;3.88;;;;;;;;;;4946955;28;20035;-94
2023/08/12 14:57:54;;;;;;;3.97;3.58;;;;;;;;;;4952228;28;20491;-92
2023/08/12 15:00:22;;;;;;;6.63;3.47;;;;;;;;;;4923658;29;20055;-91
2023/08/12 15:02:49;;;;;;;5.22;3.47;;;;;;;;;;4928987;28;20066;-92